Time;durP1;ratioP1;P1;durP2;ratioP2;P2;SDS_P1;SDS_P2;PMS_P1;PMS_P2;Temp;Humidity;BMP_temperature;BMP_pressure;BME280_temperature;BME280_humidity;BME280_pressure;Samples;Min_cycle;Max_cycle;Signal;HPM_P1;HPM_P2
2024/02/12 00:01:44;;;;;;;2.20;1.65;;;19.50;41.00;;;;;;5063993;28;20084;-61
2024/02/12 00:04:12;;;;;;;4.22;1.95;;;19.40;40.80;;;;;;5062643;28;20066;-59
2024/02/12 00:06:39;;;;;;;8.10;7.60;;;19.40;41.20;;;;;;5063692;28;20528;-60
2024/02/12 00:09:05;;;;;;;11.73;9.23;;;19.60;40.90;;;;;;5061852;28;20081;-59
2024/02/12 00:11:32;;;;;;;0.60;0.45;;;19.60;41.30;;;;;;5063071;28;20077;-58
2024/02/12 00:14:00;;;;;;;14.68;9.50;;;19.70;40.40;;;;;;5062365;28;20066;-59
2024/02/12 00:16:26;;;;;;;20.85;18.73;;;19.30;40.50;;;;;;5065888;28;20106;-57
2024/02/12 00:18:53;;;;;;;9.23;7.15;;;19.10;41.10;;;;;;5062709;28;20140;-60
2024/02/12 00:21:19;;;;;;;28.50;25.40;;;19.00;41.10;;;;;;5062963;28;20073;-62
2024/02/12 00:23:46;;;;;;;13.05;10.93;;;18.90;41.10;;;;;;5062988;28;20440;-59
2024/02/12 00:26:13;;;;;;;1.38;1.20;;;18.70;41.40;;;;;;5064226;28;20084;-64
2024/02/12 00:28:40;;;;;;;1.40;1.30;;;18.70;41.30;;;;;;5063197;28;20560;-58
2024/02/12 00:31:07;;;;;;;1.45;1.05;;;18.70;41.00;;;;;;5065126;28;20077;-57
2024/02/12 00:33:33;;;;;;;2.67;2.42;;;18.70;41.00;;;;;;5062630;28;20088;-62
2024/02/12 00:36:00;;;;;;;3.72;2.03;;;18.70;40.80;;;;;;5063838;28;20144;-55
2024/02/12 00:38:27;;;;;;;1.45;1.13;;;18.70;41.00;;;;;;5061428;28;20188;-56
2024/02/12 00:40:54;;;;;;;4.00;1.52;;;18.50;41.10;;;;;;5061551;28;20081;-57
2024/02/12 00:43:20;;;;;;;3.03;2.30;;;18.50;41.50;;;;;;5063796;28;20079;-56
2024/02/12 00:45:47;;;;;;;4.32;2.33;;;18.60;41.50;;;;;;5067318;28;20080;-58
2024/02/12 00:48:14;;;;;;;3.90;2.97;;;18.80;40.70;;;;;;5061657;28;20084;-63
2024/02/12 00:50:41;;;;;;;17.23;12.43;;;19.40;40.70;;;;;;5064561;28;20113;-59
2024/02/12 00:53:07;;;;;;;4.22;2.95;;;19.20;40.90;;;;;;5060356;28;20461;-57
2024/02/12 00:55:34;;;;;;;6.50;4.32;;;18.80;41.60;;;;;;5064173;28;20101;-58
2024/02/12 00:58:03;;;;;;;3.08;1.45;;;18.50;41.80;;;;;;5061964;28;20076;-58
2024/02/12 01:00:30;;;;;;;3.67;1.90;;;17.90;42.80;;;;;;5067179;28;20116;-60
2024/02/12 01:02:56;;;;;;;1.50;1.40;;;17.70;42.90;;;;;;5063148;28;20084;-56
2024/02/12 01:05:23;;;;;;;3.95;1.17;;;17.40;43.50;;;;;;5066995;28;20155;-56
2024/02/12 01:07:49;;;;;;;6.13;3.75;;;17.30;43.30;;;;;;5062722;28;20174;-57
2024/02/12 01:10:16;;;;;;;17.05;10.35;;;17.10;44.10;;;;;;5062624;28;20077;-57
2024/02/12 01:12:44;;;;;;;19.05;16.05;;;17.00;44.50;;;;;;5060412;28;20648;-56
2024/02/12 01:15:10;;;;;;;13.52;10.38;;;16.80;44.90;;;;;;5061283;28;20087;-57
2024/02/12 01:17:37;;;;;;;10.48;7.55;;;16.70;45.30;;;;;;5064026;28;20073;-58
2024/02/12 01:20:08;;;;;;;9.57;6.65;;;16.60;45.60;;;;;;5060617;28;20072;-61
2024/02/12 01:22:34;;;;;;;5.03;3.55;;;16.50;45.60;;;;;;5060022;28;20085;-57
2024/02/12 01:25:01;;;;;;;14.50;6.47;;;16.40;45.60;;;;;;5062373;28;20072;-60
2024/02/12 01:27:27;;;;;;;9.43;4.75;;;16.30;45.50;;;;;;5061349;28;20081;-64
2024/02/12 01:29:54;;;;;;;11.57;6.97;;;16.20;46.20;;;;;;5063773;28;20105;-60
2024/02/12 01:32:20;;;;;;;31.33;24.65;;;16.20;46.30;;;;;;5059451;28;20537;-54
2024/02/12 01:34:47;;;;;;;38.25;33.55;;;16.10;46.50;;;;;;5063700;28;20525;-61
2024/02/12 01:37:13;;;;;;;12.50;8.52;;;16.00;46.90;;;;;;5063508;28;20107;-57
2024/02/12 01:39:40;;;;;;;10.40;5.03;;;15.90;47.70;;;;;;5061331;28;20546;-59
2024/02/12 01:42:13;;;;;;;13.75;5.20;;;15.70;48.00;;;;;;5062706;28;20444;-55
2024/02/12 01:45:03;;;;;;;12.13;5.78;;;15.70;48.00;;;;;;5060219;28;20124;-59
2024/02/12 01:47:33;;;;;;;13.63;5.63;;;15.50;48.00;;;;;;5059426;28;20603;-59
2024/02/12 01:50:02;;;;;;;14.55;6.78;;;15.30;49.10;;;;;;5059787;28;20075;-58
2024/02/12 01:52:29;;;;;;;15.90;8.68;;;15.30;51.10;;;;;;5060389;28;20073;-59
2024/02/12 01:55:02;;;;;;;22.55;10.85;;;15.10;50.20;;;;;;5061372;28;20077;-58
2024/02/12 01:57:30;;;;;;;18.55;11.82;;;15.00;50.50;;;;;;5062909;28;20175;-58
2024/02/12 01:59:57;;;;;;;30.98;15.85;;;14.90;50.70;;;;;;5066298;28;20069;-59
2024/02/12 02:02:25;;;;;;;40.97;23.75;;;14.80;51.90;;;;;;5066083;28;20529;-61
2024/02/12 02:04:53;;;;;;;53.67;31.42;;;14.70;51.60;;;;;;5063058;28;20090;-58
2024/02/12 02:07:20;;;;;;;56.40;32.10;;;14.60;51.80;;;;;;5059888;28;20443;-62
2024/02/12 02:09:48;;;;;;;67.20;36.95;;;14.50;52.10;;;;;;5064026;28;20073;-58
2024/02/12 02:12:15;;;;;;;50.70;32.13;;;14.40;53.90;;;;;;5062830;28;20080;-59
2024/02/12 02:14:43;;;;;;;50.47;27.35;;;14.40;54.60;;;;;;5060248;28;20100;-59
2024/02/12 02:17:11;;;;;;;39.13;22.52;;;14.30;54.40;;;;;;5062636;28;20096;-61
2024/02/12 02:19:40;;;;;;;34.50;19.50;;;14.20;54.50;;;;;;5059497;28;20134;-59
2024/02/12 02:22:08;;;;;;;26.35;14.00;;;14.20;55.60;;;;;;5062404;28;20073;-59
2024/02/12 02:24:34;;;;;;;25.98;12.65;;;14.10;56.40;;;;;;5056975;28;20188;-66
2024/02/12 02:27:01;;;;;;;22.48;11.18;;;14.00;55.80;;;;;;5059615;28;20073;-59
2024/02/12 02:29:27;;;;;;;23.70;9.80;;;14.00;55.70;;;;;;5060655;28;20577;-58
2024/02/12 02:31:54;;;;;;;18.10;8.52;;;14.00;55.80;;;;;;5062699;28;20069;-61
2024/02/12 02:34:21;;;;;;;27.15;8.85;;;13.80;57.50;;;;;;5058335;28;20081;-59
2024/02/12 02:36:48;;;;;;;18.70;7.40;;;13.70;57.60;;;;;;5061079;28;20117;-60
2024/02/12 02:39:16;;;;;;;13.77;7.97;;;13.70;57.60;;;;;;5063925;28;20432;-61
2024/02/12 02:41:43;;;;;;;18.92;8.93;;;13.60;57.70;;;;;;5060806;28;20077;-64
2024/02/12 02:44:09;;;;;;;29.65;14.18;;;13.60;58.10;;;;;;5060991;28;20205;-59
2024/02/12 02:46:36;;;;;;;23.73;11.77;;;13.50;57.60;;;;;;5061799;28;20448;-61
2024/02/12 02:49:03;;;;;;;33.70;12.48;;;13.50;56.50;;;;;;5059216;28;20089;-61
2024/02/12 02:51:30;;;;;;;18.27;12.68;;;13.40;56.60;;;;;;5060371;28;20484;-60
2024/02/12 02:53:57;;;;;;;24.77;14.65;;;13.30;58.50;;;;;;5062485;28;20608;-63
2024/02/12 02:56:24;;;;;;;25.55;14.52;;;13.30;58.10;;;;;;5061035;28;20263;-59
2024/02/12 02:58:51;;;;;;;26.30;14.55;;;13.30;58.10;;;;;;5061076;28;20077;-60
2024/02/12 03:01:19;;;;;;;31.05;14.60;;;13.20;58.00;;;;;;5059133;28;20489;-59
2024/02/12 03:03:51;;;;;;;26.50;14.20;;;13.20;58.70;;;;;;5063594;28;20069;-59
2024/02/12 03:06:19;;;;;;;24.15;12.90;;;13.10;59.80;;;;;;5063305;28;20118;-63
2024/02/12 03:08:48;;;;;;;29.27;13.20;;;13.10;59.70;;;;;;5065658;28;20084;-60
2024/02/12 03:11:19;;;;;;;30.60;13.65;;;13.10;59.30;;;;;;5061572;28;20130;-63
2024/02/12 03:13:46;;;;;;;28.75;13.38;;;13.00;59.60;;;;;;5064320;28;20073;-64
2024/02/12 03:16:18;;;;;;;27.55;13.43;;;12.90;61.00;;;;;;5064783;28;20200;-60
2024/02/12 03:18:48;;;;;;;26.88;14.15;;;12.90;60.70;;;;;;5063456;28;20101;-65
2024/02/12 03:21:22;;;;;;;27.85;13.65;;;12.90;60.50;;;;;;5067890;28;20077;-60
2024/02/12 03:23:49;;;;;;;22.95;13.15;;;12.90;60.30;;;;;;5064662;28;20073;-60
2024/02/12 03:26:16;;;;;;;28.50;13.15;;;12.80;62.50;;;;;;5063143;28;20449;-61
2024/02/12 03:28:43;;;;;;;35.05;13.23;;;12.70;62.10;;;;;;5064486;28;20123;-62
2024/02/12 03:31:11;;;;;;;27.75;13.18;;;12.70;61.90;;;;;;5067125;28;20444;-58
2024/02/12 03:33:38;;;;;;;21.08;12.45;;;12.70;62.60;;;;;;5063958;28;20081;-62
2024/02/12 03:36:05;;;;;;;21.90;13.00;;;12.60;63.50;;;;;;5062424;28;20149;-61
2024/02/12 03:38:32;;;;;;;28.63;13.18;;;12.50;62.20;;;;;;5063032;28;20215;-60
2024/02/12 03:40:59;;;;;;;35.83;13.77;;;12.60;62.20;;;;;;5061556;28;20100;-60
2024/02/12 03:43:27;;;;;;;34.78;13.40;;;12.60;61.60;;;;;;5061227;28;20429;-59
2024/02/12 03:45:57;;;;;;;23.05;12.15;;;12.50;61.90;;;;;;5066070;28;20091;-60
2024/02/12 04:02:09;;;;;;;29.08;10.18;;;12.20;63.50;;;;;;5059558;28;20450;-60
2024/02/12 04:04:38;;;;;;;25.00;10.77;;;12.20;63.20;;;;;;5063776;28;20151;-58
2024/02/12 04:07:06;;;;;;;23.58;10.55;;;12.10;65.30;;;;;;5065844;28;20078;-60
2024/02/12 04:09:38;;;;;;;26.70;11.50;;;12.10;65.60;;;;;;5063000;28;20084;-58
2024/02/12 04:12:13;;;;;;;32.45;13.80;;;12.10;65.00;;;;;;5063977;28;20070;-60
2024/02/12 04:14:42;;;;;;;31.58;15.63;;;12.10;64.80;;;;;;5062790;28;20080;-59
2024/02/12 04:17:10;;;;;;;43.60;20.17;;;11.90;66.80;;;;;;5063926;28;20215;-66
2024/02/12 04:19:38;;;;;;;60.72;25.10;;;11.90;67.00;;;;;;5063271;28;20084;-59
2024/02/12 04:22:09;;;;;;;51.15;23.08;;;11.90;66.40;;;;;;5061496;28;20070;-59
2024/02/12 04:24:44;;;;;;;38.83;19.38;;;11.90;66.30;;;;;;5063937;28;20452;-61
2024/02/12 04:27:13;;;;;;;36.33;19.02;;;12.00;66.80;;;;;;5061885;28;20424;-62
2024/02/12 04:29:41;;;;;;;35.60;17.23;;;12.00;67.00;;;;;;5063612;28;20421;-59
2024/02/12 04:32:15;;;;;;;45.55;19.40;;;11.90;66.70;;;;;;5064303;28;20073;-59
2024/02/12 04:34:43;;;;;;;48.10;20.60;;;11.80;66.60;;;;;;5063281;28;20092;-60
2024/02/12 04:37:12;;;;;;;58.83;30.40;;;11.80;67.90;;;;;;5063061;28;20101;-59
2024/02/12 04:39:40;;;;;;;87.65;45.05;;;11.60;68.00;;;;;;5061855;28;20073;-62
2024/02/12 04:42:07;;;;;;;89.97;47.20;;;11.70;67.60;;;;;;5063093;28;20076;-59
2024/02/12 04:44:34;;;;;;;71.90;40.70;;;11.70;68.20;;;;;;5061486;28;20168;-60
2024/02/12 04:47:04;;;;;;;77.72;39.88;;;11.70;68.30;;;;;;5062543;28;20101;-67
2024/02/12 04:49:32;;;;;;;74.72;37.15;;;11.70;68.20;;;;;;5062158;28;20074;-61
2024/02/12 04:52:00;;;;;;;75.25;38.80;;;11.70;69.20;;;;;;5062330;28;20154;-66
2024/02/12 04:54:27;;;;;;;80.15;38.00;;;11.70;69.50;;;;;;5063112;28;20091;-58
2024/02/12 04:56:54;;;;;;;75.30;38.50;;;11.70;69.20;;;;;;5061208;28;20661;-60
2024/02/12 04:59:22;;;;;;;70.80;35.60;;;11.70;69.70;;;;;;5060042;28;20088;-59
2024/02/12 05:01:49;;;;;;;70.55;34.70;;;11.60;70.90;;;;;;5059665;28;20473;-67
2024/02/12 05:04:20;;;;;;;68.18;31.10;;;11.50;72.00;;;;;;5062431;28;20160;-58
2024/02/12 05:06:47;;;;;;;65.47;29.83;;;11.50;72.20;;;;;;5061024;28;21575;-59
2024/02/12 05:09:15;;;;;;;62.38;29.58;;;11.50;72.40;;;;;;5062997;28;20167;-59
2024/02/12 05:11:42;;;;;;;77.20;33.42;;;11.40;70.80;;;;;;5062908;28;20077;-58
2024/02/12 05:14:09;;;;;;;73.35;34.35;;;11.40;70.90;;;;;;5061047;28;20460;-59
2024/02/12 05:16:37;;;;;;;84.38;33.25;;;11.40;71.10;;;;;;5060523;28;20106;-60
2024/02/12 05:24:37;;;;;;;89.00;35.13;;;11.40;72.80;;;;;;5062450;28;20088;-60
2024/02/12 05:27:05;;;;;;;87.57;34.97;;;11.30;74.00;;;;;;5060369;28;20070;-66
2024/02/12 05:29:32;;;;;;;95.97;34.00;;;11.20;75.20;;;;;;5063226;28;20108;-60
2024/02/12 05:31:59;;;;;;;68.63;30.75;;;11.20;74.40;;;;;;5064468;28;20073;-63
2024/02/12 05:34:26;;;;;;;76.85;30.65;;;11.20;74.50;;;;;;5059215;28;20073;-64
2024/02/12 05:36:54;;;;;;;74.50;31.05;;;11.20;75.10;;;;;;5062774;28;20117;-65
2024/02/12 05:39:22;;;;;;;84.38;33.25;;;11.30;74.50;;;;;;5065169;28;20081;-62
2024/02/12 05:41:49;;;;;;;90.30;33.53;;;11.30;74.20;;;;;;5066606;28;20145;-65
2024/02/12 05:44:17;;;;;;;93.57;34.80;;;11.20;71.50;;;;;;5066218;28;20073;-60
2024/02/12 05:46:44;;;;;;;72.38;32.97;;;11.10;71.10;;;;;;5067731;28;20111;-59
2024/02/12 05:49:14;;;;;;;78.63;32.28;;;11.00;73.20;;;;;;5067670;28;20130;-60
2024/02/12 05:51:43;;;;;;;86.15;34.38;;;10.90;73.20;;;;;;5065297;28;20612;-64
2024/02/12 05:54:10;;;;;;;85.55;34.08;;;10.90;73.80;;;;;;5066286;28;20131;-59
2024/02/12 05:56:39;;;;;;;84.38;37.10;;;10.90;73.60;;;;;;5067486;28;20123;-67
2024/02/12 05:59:08;;;;;;;95.15;38.03;;;10.80;74.50;;;;;;5063955;28;20088;-59
2024/02/12 06:01:35;;;;;;;87.68;38.08;;;10.80;74.30;;;;;;5066074;28;20547;-60
2024/02/12 06:04:02;;;;;;;90.00;38.55;;;10.70;73.50;;;;;;5066238;28;20061;-58
2024/02/12 06:06:29;;;;;;;103.70;39.70;;;10.80;73.70;;;;;;5066204;28;20069;-58
2024/02/12 06:08:56;;;;;;;85.63;39.55;;;10.80;74.60;;;;;;5064921;28;20080;-58
2024/02/12 06:11:23;;;;;;;94.95;39.67;;;10.80;75.10;;;;;;5065219;28;20556;-59
2024/02/12 06:13:50;;;;;;;100.35;40.38;;;10.90;74.40;;;;;;5064302;28;20504;-60
2024/02/12 06:16:17;;;;;;;92.25;39.10;;;10.90;75.40;;;;;;5066030;28;20101;-62
2024/02/12 06:18:44;;;;;;;90.53;38.33;;;10.80;75.40;;;;;;5066066;28;20113;-58
2024/02/12 06:21:11;;;;;;;95.65;37.83;;;10.70;75.40;;;;;;5065925;28;20084;-56
2024/02/12 06:23:37;;;;;;;88.05;37.78;;;10.70;75.60;;;;;;5066280;28;20073;-63
2024/02/12 06:26:05;;;;;;;103.25;39.63;;;10.70;76.50;;;;;;5067039;28;20388;-58
2024/02/12 06:28:32;;;;;;;82.15;37.78;;;10.60;76.50;;;;;;5065942;28;20164;-62
2024/02/12 06:30:59;;;;;;;84.10;38.63;;;10.50;76.10;;;;;;5066170;28;20069;-60
2024/02/12 06:33:25;;;;;;;99.78;41.83;;;10.60;76.00;;;;;;5067507;28;20518;-59
2024/02/12 06:35:53;;;;;;;106.90;39.53;;;10.50;76.20;;;;;;5066716;28;20119;-59
2024/02/12 06:38:20;;;;;;;86.72;40.00;;;10.50;76.90;;;;;;5068002;28;20483;-61
2024/02/12 06:40:48;;;;;;;100.10;39.03;;;10.50;76.80;;;;;;5069718;28;20247;-59
2024/02/12 06:43:14;;;;;;;101.00;36.95;;;10.40;76.60;;;;;;5069299;28;20688;-62
2024/02/12 06:45:41;;;;;;;103.80;40.38;;;10.40;77.40;;;;;;5069603;28;20077;-65
2024/02/12 06:48:07;;;;;;;99.60;38.78;;;10.40;77.10;;;;;;5069954;28;20073;-62
2024/02/12 06:50:34;;;;;;;99.82;38.03;;;10.40;77.80;;;;;;5069577;28;20117;-63
2024/02/12 06:53:00;;;;;;;108.13;39.35;;;10.30;78.00;;;;;;5068035;28;20081;-60
2024/02/12 06:55:27;;;;;;;103.55;42.38;;;10.20;78.90;;;;;;5070753;28;20077;-60
2024/02/12 06:57:54;;;;;;;93.75;42.22;;;10.20;78.60;;;;;;5069913;28;20112;-59
2024/02/12 07:00:20;;;;;;;98.00;44.08;;;10.20;78.50;;;;;;5079953;28;20073;-59
2024/02/12 07:02:47;;;;;;;122.50;45.03;;;10.30;78.30;;;;;;5069537;28;20087;-60
2024/02/12 07:05:17;;;;;;;125.68;50.22;;;10.20;79.80;;;;;;5070306;28;20069;-60
2024/02/12 07:07:45;;;;;;;103.97;43.95;;;10.20;79.80;;;;;;5068140;28;20074;-61
2024/02/12 07:10:12;;;;;;;106.20;43.13;;;10.30;79.70;;;;;;5066769;28;20100;-59
2024/02/12 07:12:39;;;;;;;117.80;51.45;;;10.30;79.30;;;;;;5068365;28;20101;-60
2024/02/12 07:15:10;;;;;;;114.65;44.67;;;10.20;80.40;;;;;;5069993;28;20076;-61
2024/02/12 07:17:36;;;;;;;103.75;45.60;;;10.10;80.30;;;;;;5068144;28;20192;-60
2024/02/12 07:20:04;;;;;;;108.13;44.88;;;10.10;80.70;;;;;;5068840;28;20081;-59
2024/02/12 07:22:31;;;;;;;128.65;47.92;;;10.00;81.70;;;;;;5069086;28;20122;-60
2024/02/12 07:24:58;;;;;;;95.30;45.63;;;9.90;82.10;;;;;;5068176;28;21013;-62
2024/02/12 07:27:24;;;;;;;100.78;44.58;;;10.00;82.70;;;;;;5067333;28;20152;-60
2024/02/12 07:29:51;;;;;;;130.48;45.60;;;10.00;82.70;;;;;;5069370;28;20127;-59
2024/02/12 07:32:19;;;;;;;117.25;45.78;;;10.00;82.60;;;;;;5069559;28;20079;-59
2024/02/12 07:34:46;;;;;;;111.80;45.78;;;9.90;82.60;;;;;;5069574;28;20525;-60
2024/02/12 07:37:12;;;;;;;108.28;44.88;;;9.90;83.00;;;;;;5069517;28;20148;-59
2024/02/12 07:39:39;;;;;;;126.50;50.05;;;9.90;83.20;;;;;;5070006;28;20077;-63
2024/02/12 07:42:12;;;;;;;134.82;52.38;;;9.90;83.60;;;;;;5067155;28;20081;-67
2024/02/12 07:44:39;;;;;;;135.98;56.70;;;9.80;84.00;;;;;;5067513;28;20081;-58
2024/02/12 07:47:05;;;;;;;152.45;62.45;;;9.80;84.10;;;;;;5068254;28;20541;-62
2024/02/12 07:49:32;;;;;;;144.75;64.07;;;9.70;85.50;;;;;;5067904;28;20425;-60
2024/02/12 07:52:02;;;;;;;147.68;63.33;;;9.70;85.80;;;;;;5067718;28;20479;-60
2024/02/12 07:54:33;;;;;;;167.05;66.93;;;9.60;86.00;;;;;;5067208;28;20073;-60
2024/02/12 07:57:00;;;;;;;154.60;62.58;;;9.60;86.00;;;;;;5069738;28;20108;-60
2024/02/12 07:59:26;;;;;;;151.02;62.97;;;9.60;86.50;;;;;;5068702;28;20061;-60
2024/02/12 08:01:53;;;;;;;140.00;62.83;;;9.70;86.10;;;;;;5072886;28;20114;-61
2024/02/12 08:04:19;;;;;;;148.48;61.95;;;9.70;86.10;;;;;;5074448;28;20104;-60
2024/02/12 08:06:46;;;;;;;137.45;60.45;;;9.70;86.40;;;;;;5068500;28;20073;-60
2024/02/12 08:09:14;;;;;;;143.35;60.33;;;9.60;86.40;;;;;;5065765;28;20102;-58
2024/02/12 08:11:43;;;;;;;147.00;60.38;;;9.60;87.90;;;;;;5067498;28;20077;-59
2024/02/12 08:14:11;;;;;;;137.30;57.83;;;9.60;86.50;;;;;;5068691;28;20421;-59
2024/02/12 08:16:37;;;;;;;149.05;56.20;;;9.50;86.40;;;;;;5067647;28;20568;-60
2024/02/12 08:19:04;;;;;;;111.90;49.83;;;9.50;87.50;;;;;;5067554;28;20105;-60
2024/02/12 08:21:30;;;;;;;124.30;48.20;;;9.50;86.40;;;;;;5068202;28;20077;-59
2024/02/12 08:23:57;;;;;;;97.32;43.55;;;9.40;85.70;;;;;;5066363;28;20110;-62
2024/02/12 08:26:23;;;;;;;88.65;40.88;;;9.40;86.50;;;;;;5068284;28;20073;-59
2024/02/12 08:28:50;;;;;;;94.15;39.45;;;9.30;85.90;;;;;;5066993;28;20077;-60
2024/02/12 08:31:17;;;;;;;88.63;37.38;;;9.30;85.50;;;;;;5067928;28;20081;-59
2024/02/12 08:33:44;;;;;;;93.20;36.40;;;9.40;85.30;;;;;;5067377;28;20073;-59
2024/02/12 08:36:10;;;;;;;75.63;36.38;;;9.50;85.00;;;;;;5067148;28;20188;-58
2024/02/12 08:38:37;;;;;;;79.45;35.83;;;9.60;85.10;;;;;;5065821;28;20486;-58
2024/02/12 08:41:03;;;;;;;81.10;37.83;;;9.50;84.30;;;;;;5064274;28;20907;-60
2024/02/12 08:43:30;;;;;;;92.50;41.55;;;9.50;84.90;;;;;;5065664;28;20107;-60
2024/02/12 08:45:57;;;;;;;96.32;43.88;;;9.50;84.50;;;;;;5066372;28;20077;-60
2024/02/12 08:48:23;;;;;;;93.55;41.67;;;9.50;84.60;;;;;;5066139;28;20444;-62
2024/02/12 08:50:50;;;;;;;92.43;41.40;;;9.40;85.50;;;;;;5067593;28;20120;-59
2024/02/12 08:53:16;;;;;;;100.32;42.33;;;9.30;85.60;;;;;;5065212;28;20561;-59
2024/02/12 08:55:43;;;;;;;86.68;41.60;;;9.20;85.90;;;;;;5067280;28;20092;-65
2024/02/12 08:58:11;;;;;;;94.85;43.15;;;9.20;85.90;;;;;;5067799;28;20152;-59
2024/02/12 09:00:38;;;;;;;102.38;43.10;;;9.20;86.00;;;;;;5064644;28;20158;-60
2024/02/12 09:03:05;;;;;;;97.30;42.70;;;9.10;87.80;;;;;;5068012;28;20164;-61
2024/02/12 09:05:31;;;;;;;98.43;45.53;;;9.10;87.70;;;;;;5066613;28;20581;-59
2024/02/12 09:07:58;;;;;;;91.95;44.42;;;9.00;87.70;;;;;;5067044;28;20077;-60
2024/02/12 09:10:24;;;;;;;99.47;43.60;;;9.00;87.80;;;;;;5063917;28;20088;-60
2024/02/12 09:12:51;;;;;;;96.88;43.33;;;9.10;87.70;;;;;;5066786;28;20089;-60
2024/02/12 09:15:17;;;;;;;96.57;44.00;;;9.00;87.40;;;;;;5067111;28;20100;-59
2024/02/12 09:17:47;;;;;;;86.63;42.38;;;9.10;88.00;;;;;;5068551;28;20166;-60
2024/02/12 09:20:14;;;;;;;97.07;41.42;;;9.00;87.80;;;;;;5066359;28;20128;-60
2024/02/12 09:22:41;;;;;;;95.50;41.63;;;8.90;88.30;;;;;;5066913;28;20069;-60
2024/02/12 09:25:11;;;;;;;84.40;38.20;;;8.80;88.80;;;;;;5065799;28;20100;-65
2024/02/12 09:27:39;;;;;;;87.53;39.17;;;8.70;89.30;;;;;;5074386;28;20109;-61
2024/02/12 09:30:09;;;;;;;71.45;35.20;;;8.90;88.90;;;;;;5066039;28;20070;-60
2024/02/12 09:32:38;;;;;;;76.00;35.00;;;8.90;88.60;;;;;;5067513;28;20103;-60
2024/02/12 09:35:06;;;;;;;73.55;34.47;;;8.80;88.50;;;;;;5066458;28;20073;-65
2024/02/12 09:37:33;;;;;;;79.15;35.08;;;8.60;88.60;;;;;;5065097;28;20158;-65
2024/02/12 09:40:05;;;;;;;66.28;31.27;;;8.70;88.60;;;;;;5067745;28;20094;-60
2024/02/12 09:42:35;;;;;;;61.90;31.38;;;8.70;88.30;;;;;;5067290;28;20068;-59
2024/02/12 09:45:07;;;;;;;65.05;30.48;;;8.70;88.90;;;;;;5066417;28;20081;-62
2024/02/12 09:47:35;;;;;;;63.35;30.85;;;8.50;89.20;;;;;;5064418;28;20160;-59
2024/02/12 09:50:07;;;;;;;63.95;28.45;;;8.40;89.60;;;;;;5066276;28;20414;-59
2024/02/12 09:52:35;;;;;;;67.60;30.35;;;8.50;90.00;;;;;;5062436;28;20151;-60
2024/02/12 09:55:03;;;;;;;59.45;29.63;;;8.50;90.00;;;;;;5064971;28;20074;-60
2024/02/12 09:57:30;;;;;;;62.03;29.95;;;8.50;90.10;;;;;;5064560;28;21193;-61
2024/02/12 09:59:57;;;;;;;56.83;28.23;;;8.50;90.00;;;;;;5066472;28;20069;-64
2024/02/12 10:02:27;;;;;;;57.22;28.83;;;8.60;90.10;;;;;;5066351;28;20439;-65
2024/02/12 10:04:54;;;;;;;60.58;29.90;;;8.60;90.00;;;;;;5065622;28;20511;-59
2024/02/12 10:07:21;;;;;;;63.03;29.40;;;8.60;90.00;;;;;;5065611;28;20073;-59
2024/02/12 10:09:47;;;;;;;66.13;30.88;;;8.60;90.20;;;;;;5065037;28;20079;-60
2024/02/12 10:12:15;;;;;;;61.72;30.73;;;8.60;90.10;;;;;;5065349;28;22372;-59
2024/02/12 10:14:42;;;;;;;68.68;32.67;;;8.60;90.10;;;;;;5065417;28;20147;-59
2024/02/12 10:17:08;;;;;;;67.90;32.47;;;8.70;90.10;;;;;;5066117;28;20101;-60
2024/02/12 10:19:36;;;;;;;61.55;31.95;;;8.70;90.20;;;;;;5066175;28;20081;-60
2024/02/12 10:22:03;;;;;;;72.88;33.40;;;8.60;90.20;;;;;;5065318;28;20552;-60
2024/02/12 10:24:30;;;;;;;79.10;35.28;;;8.50;90.40;;;;;;5064182;28;20100;-59
2024/02/12 10:26:57;;;;;;;71.25;34.72;;;8.40;90.80;;;;;;5064298;28;20073;-59
2024/02/12 10:29:23;;;;;;;66.68;35.53;;;8.40;91.30;;;;;;5063871;28;20085;-59
2024/02/12 10:31:50;;;;;;;69.32;36.25;;;8.30;91.30;;;;;;5062854;28;20445;-59
2024/02/12 10:34:17;;;;;;;78.13;36.42;;;8.40;91.50;;;;;;5062448;28;20081;-63
2024/02/12 10:36:47;;;;;;;78.57;36.97;;;8.40;91.40;;;;;;5066157;28;20115;-60
2024/02/12 10:39:18;;;;;;;65.28;36.85;;;8.30;91.30;;;;;;5063700;28;20598;-60
2024/02/12 10:41:52;;;;;;;74.65;36.42;;;8.10;91.30;;;;;;5065569;28;20077;-59
2024/02/12 10:44:18;;;;;;;65.68;34.72;;;8.20;91.30;;;;;;5064463;28;20544;-60
2024/02/12 10:46:49;;;;;;;84.20;36.95;;;8.10;91.60;;;;;;5063157;28;20069;-59
2024/02/12 10:49:18;;;;;;;72.03;35.25;;;8.00;91.30;;;;;;5065822;28;20098;-59
2024/02/12 10:51:46;;;;;;;83.47;35.38;;;8.10;91.70;;;;;;5064529;28;20113;-60
2024/02/12 10:54:13;;;;;;;84.68;37.28;;;8.00;91.50;;;;;;5064509;28;20169;-59
2024/02/12 10:56:40;;;;;;;81.20;37.13;;;8.00;91.60;;;;;;5064327;28;20109;-60
2024/02/12 10:59:13;;;;;;;80.80;35.30;;;7.90;91.60;;;;;;5066288;28;20088;-60
2024/02/12 11:01:40;;;;;;;76.05;33.65;;;7.90;91.80;;;;;;5063977;28;20161;-59
2024/02/12 11:04:12;;;;;;;75.63;34.33;;;7.80;91.90;;;;;;5069311;28;20069;-61
2024/02/12 11:06:41;;;;;;;68.05;32.38;;;7.80;92.30;;;;;;5065548;28;20115;-60
2024/02/12 11:09:09;;;;;;;85.05;34.47;;;7.90;92.20;;;;;;5062213;28;20653;-59
2024/02/12 11:11:46;;;;;;;68.18;31.88;;;7.90;92.20;;;;;;5068890;28;20155;-61
2024/02/12 11:14:18;;;;;;;84.93;38.90;;;7.90;92.30;;;;;;5065085;28;20084;-61
2024/02/12 11:16:49;;;;;;;64.63;32.92;;;7.70;92.80;;;;;;5064281;28;20184;-61
2024/02/12 11:19:16;;;;;;;75.68;35.58;;;7.80;93.20;;;;;;5065426;28;20274;-59
2024/02/12 11:21:44;;;;;;;75.18;33.55;;;7.80;93.00;;;;;;5065947;28;20073;-60
2024/02/12 11:24:12;;;;;;;75.97;31.27;;;7.80;93.20;;;;;;5066151;28;20176;-60
2024/02/12 11:26:49;;;;;;;58.80;31.08;;;7.80;93.20;;;;;;5066050;28;20458;-60
2024/02/12 11:29:19;;;;;;;62.38;29.83;;;7.80;93.20;;;;;;5068334;28;20536;-59
2024/02/12 11:31:50;;;;;;;68.53;28.85;;;7.80;93.10;;;;;;5069016;28;20077;-59
2024/02/12 11:34:21;;;;;;;57.35;28.88;;;7.80;93.40;;;;;;5068316;28;20073;-60
2024/02/12 11:37:01;;;;;;;51.83;26.88;;;7.70;93.50;;;;;;5068411;28;20105;-61
2024/02/12 11:39:28;;;;;;;53.58;26.95;;;7.60;93.60;;;;;;5068857;28;20081;-58
2024/02/12 11:41:55;;;;;;;53.42;25.63;;;7.70;93.50;;;;;;5069505;28;20077;-60
2024/02/12 11:44:21;;;;;;;49.63;23.77;;;7.70;93.30;;;;;;5067924;28;20540;-59
2024/02/12 11:47:02;;;;;;;45.33;22.70;;;7.70;93.40;;;;;;5068970;28;20103;-59
2024/02/12 11:49:28;;;;;;;50.38;22.05;;;7.70;93.40;;;;;;5067259;28;20085;-62
2024/02/12 11:51:58;;;;;;;37.15;18.02;;;7.60;93.00;;;;;;5068956;28;20113;-59
2024/02/12 11:54:27;;;;;;;41.65;15.85;;;7.50;92.50;;;;;;5066513;28;20069;-59
2024/02/12 11:56:53;;;;;;;33.03;14.10;;;7.40;91.80;;;;;;5067434;28;20108;-66
2024/02/12 11:59:21;;;;;;;28.98;12.52;;;7.40;91.80;;;;;;5069063;28;20081;-59
2024/02/12 12:01:48;;;;;;;27.40;12.68;;;7.50;91.60;;;;;;5067236;28;20787;-58
2024/02/12 12:04:17;;;;;;;24.15;11.80;;;7.60;91.40;;;;;;5069958;28;20133;-59
2024/02/12 12:06:43;;;;;;;23.33;11.02;;;7.70;91.00;;;;;;5067616;28;20069;-60
2024/02/12 12:09:11;;;;;;;18.25;9.18;;;7.70;90.80;;;;;;5068119;28;20123;-61
2024/02/12 12:11:43;;;;;;;22.77;9.90;;;7.60;90.80;;;;;;5068800;28;20075;-65
2024/02/12 12:14:10;;;;;;;15.95;8.13;;;7.60;90.50;;;;;;5067239;28;20371;-58
2024/02/12 12:16:37;;;;;;;21.17;9.85;;;7.60;90.20;;;;;;5068397;28;20476;-60
2024/02/12 12:19:09;;;;;;;20.40;8.75;;;7.60;90.20;;;;;;5067325;28;20080;-61
2024/02/12 12:21:36;;;;;;;21.80;8.32;;;7.70;90.10;;;;;;5066723;28;20107;-60
2024/02/12 12:24:03;;;;;;;24.40;8.82;;;7.60;89.90;;;;;;5067402;28;20096;-60
2024/02/12 12:26:32;;;;;;;18.23;8.55;;;7.60;90.10;;;;;;5067845;28;20439;-60
2024/02/12 12:28:59;;;;;;;21.17;8.30;;;7.70;90.00;;;;;;5067248;28;20081;-61
2024/02/12 12:31:27;;;;;;;23.00;7.85;;;7.70;89.80;;;;;;5067673;28;20498;-62
2024/02/12 12:33:53;;;;;;;14.73;6.78;;;7.80;88.80;;;;;;5065971;28;20084;-60
2024/02/12 12:36:20;;;;;;;17.13;5.80;;;7.70;88.00;;;;;;5066345;28;20190;-66
2024/02/12 12:38:46;;;;;;;10.00;4.63;;;7.70;87.10;;;;;;5065450;28;20093;-60
2024/02/12 12:41:13;;;;;;;12.10;4.32;;;7.80;85.60;;;;;;5067262;28;20202;-60
2024/02/12 12:43:40;;;;;;;7.82;3.47;;;7.80;85.00;;;;;;5067598;28;20504;-61
2024/02/12 12:46:07;;;;;;;9.90;3.20;;;7.80;84.40;;;;;;5066735;28;20065;-61
2024/02/12 12:48:33;;;;;;;9.95;3.25;;;7.90;84.20;;;;;;5067775;28;20111;-61
2024/02/12 12:51:00;;;;;;;8.32;3.22;;;7.80;83.90;;;;;;5066547;28;20127;-60
2024/02/12 12:53:29;;;;;;;6.40;2.65;;;7.80;83.80;;;;;;5068095;28;20080;-61
2024/02/12 12:55:56;;;;;;;7.30;2.78;;;7.90;83.40;;;;;;5066733;28;20239;-59